Time;durP1;ratioP1;P1;durP2;ratioP2;P2;SDS_P1;SDS_P2;PMS_P1;PMS_P2;Temp;Humidity;BMP_temperature;BMP_pressure;BME280_temperature;BME280_humidity;BME280_pressure;Samples;Min_cycle;Max_cycle;Signal;HPM_P1;HPM_P2
2022/12/25 00:01:41;;;;;;;63.28;47.05;;;;;;;9.20;67.90;101403.89;1784317;79;21132;-56
2022/12/25 00:04:08;;;;;;;65.35;48.42;;;;;;;9.14;67.96;101413.02;1792174;78;21521;-56
2022/12/25 00:06:35;;;;;;;63.60;45.35;;;;;;;9.10;68.34;101412.61;1811046;79;21057;-56
2022/12/25 00:09:01;;;;;;;61.18;45.48;;;;;;;9.12;68.54;101414.77;1799710;79;21116;-56
2022/12/25 00:11:28;;;;;;;49.53;39.03;;;;;;;9.16;68.53;101416.47;1796244;79;21010;-56
2022/12/25 00:13:55;;;;;;;48.10;36.03;;;;;;;9.17;68.56;101416.87;1793220;79;21060;-56
2022/12/25 00:16:23;;;;;;;42.65;33.42;;;;;;;9.20;68.66;101416.87;1748181;79;21077;-56
2022/12/25 00:18:52;;;;;;;45.98;32.65;;;;;;;9.27;68.66;101415.98;1786985;79;21023;-56
2022/12/25 00:21:20;;;;;;;50.67;39.05;;;;;;;9.31;68.40;101421.59;1762215;80;21502;-56
2022/12/25 00:23:46;;;;;;;59.05;46.60;;;;;;;9.33;68.43;101423.73;1810448;79;21014;-56
2022/12/25 00:26:16;;;;;;;45.70;34.48;;;;;;;9.36;68.34;101421.10;1797591;79;21079;-56
2022/12/25 00:28:43;;;;;;;43.33;33.15;;;;;;;9.41;68.31;101427.14;1798818;79;21074;-56
2022/12/25 00:31:13;;;;;;;52.50;39.00;;;;;;;9.44;68.13;101428.83;1799356;79;21489;-56
2022/12/25 00:33:41;;;;;;;55.65;39.50;;;;;;;9.42;67.83;101428.86;1715538;82;21014;-56
2022/12/25 00:36:11;;;;;;;55.40;41.25;;;;;;;9.39;67.85;101434.09;1724430;81;21141;-56
2022/12/25 00:38:38;;;;;;;59.13;43.48;;;;;;;9.35;67.80;101422.42;1717769;83;21018;-56
2022/12/25 00:41:07;;;;;;;62.85;42.23;;;;;;;9.32;67.85;101422.42;1669151;84;21122;-56
2022/12/25 00:43:34;;;;;;;59.98;43.05;;;;;;;9.27;67.73;101422.91;1684500;83;21070;-56
2022/12/25 00:46:03;;;;;;;62.48;45.48;;;;;;;9.23;67.95;101422.07;1731390;81;21039;-56
2022/12/25 00:48:30;;;;;;;62.98;45.33;;;;;;;9.19;67.93;101419.48;1713744;82;21326;-56
2022/12/25 00:51:00;;;;;;;62.15;45.70;;;;;;;9.15;68.15;101429.01;1675638;84;21114;-56
2022/12/25 00:53:27;;;;;;;60.08;45.28;;;;;;;9.13;68.20;101428.16;1672599;84;21601;-56
2022/12/25 00:56:01;;;;;;;63.33;45.52;;;;;;;9.13;68.29;101426.86;1681280;84;21604;-56
2022/12/25 00:58:29;;;;;;;60.50;44.05;;;;;;;9.12;68.51;101426.87;1615686;88;21618;-56
2022/12/25 01:00:56;;;;;;;62.53;45.03;;;;;;;9.15;68.65;101429.01;1614852;88;21057;-56
2022/12/25 01:03:23;;;;;;;55.98;41.18;;;;;;;9.19;68.56;101433.31;1614866;88;21121;-56
2022/12/25 01:05:58;;;;;;;53.73;39.85;;;;;;;9.21;68.57;101439.36;1617549;88;21553;-56
2022/12/25 01:08:25;;;;;;;51.30;38.92;;;;;;;9.23;68.41;101431.16;1620269;88;21041;-59
2022/12/25 01:10:55;;;;;;;50.12;36.42;;;;;;;9.22;68.44;101432.44;1613139;88;21077;-58
2022/12/25 01:13:21;;;;;;;50.00;37.70;;;;;;;9.19;68.20;101430.71;1615110;87;21033;-58
2022/12/25 01:15:48;;;;;;;46.88;35.15;;;;;;;9.15;68.12;101432.06;1598858;88;21073;-59
2022/12/25 01:18:14;;;;;;;48.80;35.55;;;;;;;9.05;68.15;101428.62;1617879;87;21601;-58
2022/12/25 01:20:41;;;;;;;51.42;38.08;;;;;;;8.97;68.25;101429.11;1630300;87;21131;-58
2022/12/25 01:23:08;;;;;;;46.75;36.20;;;;;;;8.92;68.77;101426.98;1654005;86;21672;-59
2022/12/25 01:25:34;;;;;;;50.05;37.17;;;;;;;8.93;68.84;101427.39;1653215;86;21658;-59
2022/12/25 01:28:01;;;;;;;45.70;34.48;;;;;;;8.92;68.87;101428.28;1650226;85;21078;-58
2022/12/25 01:30:28;;;;;;;45.92;34.73;;;;;;;8.94;68.82;101429.97;1673577;83;21611;-58
2022/12/25 01:32:54;;;;;;;46.63;33.85;;;;;;;8.94;68.58;101427.84;1714710;83;21050;-58
2022/12/25 01:35:21;;;;;;;40.43;31.50;;;;;;;8.93;68.67;101428.27;1712708;82;21625;-58
2022/12/25 01:37:47;;;;;;;41.75;32.70;;;;;;;8.91;68.12;101427.84;1703692;82;21017;-58
2022/12/25 01:40:14;;;;;;;37.42;30.37;;;;;;;8.83;68.28;101426.58;1684321;83;21019;-58
2022/12/25 01:42:41;;;;;;;42.17;31.02;;;;;;;8.80;68.03;101424.41;1715285;83;21508;-59
2022/12/25 01:45:41;;;;;;;39.10;31.07;;;;;;;8.72;67.90;101424.88;1709806;83;21038;-58
2022/12/25 01:48:12;;;;;;;38.98;31.35;;;;;;;8.63;68.00;101426.22;1708703;83;21033;-58
2022/12/25 01:50:42;;;;;;;40.98;32.25;;;;;;;8.54;68.12;101427.53;1702819;83;21564;-59
2022/12/25 01:53:09;;;;;;;42.27;33.48;;;;;;;8.46;68.38;101424.09;1697092;83;21065;-56
2022/12/25 01:55:36;;;;;;;41.00;32.28;;;;;;;8.44;68.56;101427.13;1771177;79;21541;-56
2022/12/25 01:58:03;;;;;;;40.20;31.50;;;;;;;8.45;68.49;101422.39;1811111;79;21022;-56
2022/12/25 02:00:31;;;;;;;39.35;31.52;;;;;;;8.40;68.48;101439.25;1786085;79;21025;-56
2022/12/25 02:02:57;;;;;;;42.40;31.07;;;;;;;8.35;68.70;101443.56;1800901;79;21030;-56
2022/12/25 02:05:28;;;;;;;43.75;33.60;;;;;;;8.35;68.72;101442.70;1795458;79;21026;-56
2022/12/25 02:07:58;;;;;;;42.75;31.15;;;;;;;8.32;68.89;101447.48;1792275;79;22183;-56
2022/12/25 02:10:24;;;;;;;39.63;31.17;;;;;;;8.34;68.94;101443.58;1799430;79;21607;-56
2022/12/25 02:12:53;;;;;;;41.88;31.30;;;;;;;8.33;68.88;101446.59;1789094;79;20991;-56
2022/12/25 02:15:21;;;;;;;39.53;31.68;;;;;;;8.35;68.99;101446.59;1798845;79;21009;-56
2022/12/25 02:18:16;;;;;;;46.58;33.98;;;;;;;8.37;68.95;101450.03;1801772;79;21560;-58
2022/12/25 02:21:23;;;;;;;44.23;31.48;;;;;;;8.37;68.86;101452.20;1781348;79;21534;-58
2022/12/25 02:24:25;;;;;;;44.58;33.42;;;;;;;8.39;68.82;101450.93;1777387;79;21026;-58
2022/12/25 02:27:33;;;;;;;46.33;32.48;;;;;;;8.38;69.00;101452.66;1798674;78;21522;-58
2022/12/25 02:30:07;;;;;;;41.05;31.85;;;;;;;8.39;68.82;101452.23;1710394;82;21039;-58
2022/12/25 02:32:45;;;;;;;45.05;33.08;;;;;;;8.35;68.76;101451.77;1707990;82;21009;-58
2022/12/25 02:35:20;;;;;;;42.00;32.60;;;;;;;8.33;68.96;101453.50;1741167;82;21032;-58
2022/12/25 02:38:05;;;;;;;42.05;32.00;;;;;;;8.35;68.94;101451.77;1725880;82;21153;-58
2022/12/25 02:40:46;;;;;;;42.33;32.15;;;;;;;8.35;69.05;101458.25;1654369;86;21134;-58
2022/12/25 03:08:53;;;;;;;47.67;35.58;;;;;;;8.34;68.76;101450.93;1605513;89;21211;-58
2022/12/25 03:11:32;;;;;;;41.30;31.68;;;;;;;8.38;68.83;101456.97;1608904;88;21065;-58
2022/12/25 03:16:53;;;;;;;45.70;33.55;;;;;;;8.41;68.43;101464.76;1612454;88;21120;-58
2022/12/25 03:27:56;;;;;;;41.05;31.35;;;;;;;8.35;68.55;101470.80;1533426;92;21656;-58
2022/12/25 03:35:21;;;;;;;44.20;33.48;;;;;;;8.31;68.57;101476.84;1537994;92;21194;-58
2022/12/25 03:36:18;;;;;;;41.18;32.80;;;;;;;8.28;68.55;101475.58;1548364;91;21638;-59
2022/12/25 03:39:40;;;;;;;40.95;31.45;;;;;;;8.28;68.86;101476.00;1546663;91;21524;-58
2022/12/25 04:37:15;;;;;;;45.43;33.67;;;;;;;8.48;68.25;101523.52;1707582;84;21008;-57
2022/12/25 04:39:42;;;;;;;42.53;33.55;;;;;;;8.50;68.14;101522.66;1705252;84;21074;-57
2022/12/25 04:42:09;;;;;;;45.38;36.08;;;;;;;8.50;68.04;101520.48;1685438;84;21003;-58
2022/12/25 04:44:35;;;;;;;46.92;33.85;;;;;;;8.49;68.05;101526.55;1675049;85;20992;-57
2022/12/25 04:47:03;;;;;;;47.27;33.98;;;;;;;8.45;68.45;101523.53;1681184;85;21511;-57
2022/12/25 04:49:30;;;;;;;42.05;31.52;;;;;;;8.52;68.39;101534.31;1678962;85;21526;-57
2022/12/25 04:51:56;;;;;;;45.08;33.40;;;;;;;8.54;68.23;101529.98;1714340;83;21055;-57
2022/12/25 04:54:23;;;;;;;44.80;34.27;;;;;;;8.59;68.09;101530.86;1713765;83;21078;-57
2022/12/25 04:56:50;;;;;;;44.53;34.63;;;;;;;8.57;68.05;101539.08;1714053;81;21570;-57
2022/12/25 04:59:17;;;;;;;44.75;33.55;;;;;;;8.55;68.10;101542.11;1712586;81;21038;-57
2022/12/25 05:01:43;;;;;;;42.13;32.75;;;;;;;8.55;68.13;101546.00;1715616;83;21031;-57
2022/12/25 05:04:10;;;;;;;44.95;34.08;;;;;;;8.55;68.02;101544.24;1715397;81;21071;-57
2022/12/25 05:06:37;;;;;;;45.75;34.58;;;;;;;8.55;67.96;101548.59;1716452;83;21126;-57
2022/12/25 05:09:04;;;;;;;47.40;34.73;;;;;;;8.52;68.02;101553.34;1717506;81;21464;-57
2022/12/25 05:11:30;;;;;;;47.75;35.00;;;;;;;8.52;68.18;101555.06;1717369;83;21016;-57
2022/12/25 05:13:57;;;;;;;43.38;32.67;;;;;;;8.53;68.17;101555.52;1715254;81;21058;-57
2022/12/25 05:16:25;;;;;;;45.67;35.20;;;;;;;8.52;68.13;101553.77;1714392;81;21565;-57
2022/12/25 05:18:51;;;;;;;44.45;34.40;;;;;;;8.51;68.20;101556.78;1714685;83;20996;-57
2022/12/25 05:21:18;;;;;;;47.83;35.73;;;;;;;8.50;68.22;101565.87;1714009;83;21032;-57
2022/12/25 05:23:50;;;;;;;50.38;37.53;;;;;;;8.47;68.29;101562.00;1714557;83;21067;-57
2022/12/25 05:26:20;;;;;;;47.27;34.83;;;;;;;8.47;68.25;101555.52;1709553;81;21055;-57
2022/12/25 05:28:47;;;;;;;44.80;34.80;;;;;;;8.42;68.24;101567.61;1714181;83;21039;-57
2022/12/25 05:31:14;;;;;;;46.35;34.43;;;;;;;8.38;68.57;101573.66;1716616;83;21534;-57
2022/12/25 05:33:41;;;;;;;49.80;35.10;;;;;;;8.37;68.68;101584.88;1717451;83;21039;-57
2022/12/25 05:36:09;;;;;;;49.20;37.58;;;;;;;8.35;68.65;101594.39;1716507;81;20996;-57
2022/12/25 05:38:36;;;;;;;46.25;34.85;;;;;;;8.30;68.88;101603.91;1714027;81;21027;-57
2022/12/25 05:41:03;;;;;;;48.80;35.05;;;;;;;8.31;69.07;101613.41;1714260;81;21077;-57
2022/12/25 05:43:29;;;;;;;47.98;35.25;;;;;;;8.33;69.19;101603.90;1714152;83;21076;-57
2022/12/25 05:45:56;;;;;;;48.35;36.98;;;;;;;8.34;69.15;101599.16;1714627;81;21535;-57
2022/12/25 05:48:23;;;;;;;47.98;35.65;;;;;;;8.35;69.28;101598.28;1715774;81;21055;-57
2022/12/25 05:50:49;;;;;;;48.15;36.33;;;;;;;8.33;69.31;101603.90;1717304;83;20987;-57
2022/12/25 05:53:17;;;;;;;52.58;38.20;;;;;;;8.37;69.27;101613.41;1717273;83;21534;-57
2022/12/25 05:55:44;;;;;;;48.38;36.98;;;;;;;8.37;69.24;101621.19;1721599;83;21079;-57
2022/12/25 05:58:12;;;;;;;51.40;38.48;;;;;;;8.39;69.44;101628.11;1715688;81;21094;-57
2022/12/25 06:00:42;;;;;;;54.27;37.85;;;;;;;8.42;69.51;101631.15;1715685;83;21023;-57
2022/12/25 06:03:09;;;;;;;53.48;39.03;;;;;;;8.46;69.69;101636.77;1707863;83;21023;-57
2022/12/25 06:05:37;;;;;;;51.25;37.48;;;;;;;8.53;69.87;101634.17;1714402;81;21066;-57
2022/12/25 06:08:04;;;;;;;50.63;37.05;;;;;;;8.62;69.51;101632.89;1714348;83;21082;-57
2022/12/25 06:10:31;;;;;;;53.55;38.65;;;;;;;8.63;69.34;101635.94;1714375;83;21608;-57
2022/12/25 06:12:57;;;;;;;52.23;37.40;;;;;;;8.63;69.31;101637.66;1715612;83;21039;-57
2022/12/25 06:15:24;;;;;;;55.45;39.35;;;;;;;8.61;69.24;101640.26;1717310;83;21039;-57
2022/12/25 06:17:50;;;;;;;58.70;39.92;;;;;;;8.59;69.37;101640.69;1717307;83;21134;-57
2022/12/25 06:20:17;;;;;;;55.33;39.03;;;;;;;8.60;69.43;101638.51;1714920;83;21027;-57
2022/12/25 06:22:44;;;;;;;55.23;39.03;;;;;;;8.60;69.35;101644.13;1715691;83;21055;-58
2022/12/25 06:25:10;;;;;;;59.67;41.80;;;;;;;8.61;69.40;101638.09;1716745;83;21019;-57
2022/12/25 06:27:37;;;;;;;54.75;38.85;;;;;;;8.63;69.38;101640.25;1717505;81;21039;-57
2022/12/25 06:30:06;;;;;;;52.35;38.42;;;;;;;8.63;69.48;101631.17;1708156;81;21078;-57
2022/12/25 06:32:33;;;;;;;61.15;41.25;;;;;;;8.63;69.48;101631.17;1713206;81;21511;-57
2022/12/25 06:34:59;;;;;;;56.37;39.92;;;;;;;8.63;69.56;101632.47;1686549;84;21588;-57
2022/12/25 06:37:26;;;;;;;57.27;40.78;;;;;;;8.68;69.79;101634.61;1699375;84;21016;-57
2022/12/25 06:39:52;;;;;;;55.45;39.33;;;;;;;8.74;69.73;101633.31;1698658;82;21079;-57
2022/12/25 06:42:19;;;;;;;53.35;39.27;;;;;;;8.78;69.43;101629.84;1696698;83;21016;-57
2022/12/25 06:44:46;;;;;;;57.85;41.45;;;;;;;8.79;69.36;101631.59;1695455;84;21095;-58
2022/12/25 06:47:12;;;;;;;60.08;42.60;;;;;;;8.82;69.41;101647.17;1694985;83;21013;-57
2022/12/25 06:49:39;;;;;;;62.10;43.08;;;;;;;8.84;69.30;101646.28;1701792;82;21017;-57
2022/12/25 06:52:05;;;;;;;54.15;38.95;;;;;;;8.88;69.19;101652.36;1697820;84;21048;-57
2022/12/25 06:54:33;;;;;;;56.00;38.63;;;;;;;8.88;69.03;101645.88;1696360;84;21044;-57
2022/12/25 06:56:59;;;;;;;60.38;42.95;;;;;;;8.85;69.14;101649.33;1696623;82;21028;-57
2022/12/25 06:59:27;;;;;;;54.03;39.48;;;;;;;8.85;69.24;101648.03;1692657;84;21005;-57
2022/12/25 07:01:56;;;;;;;59.75;41.98;;;;;;;8.88;69.14;101649.77;1699540;84;21051;-57
2022/12/25 07:04:36;;;;;;;55.23;40.88;;;;;;;8.87;69.16;101653.20;1647946;85;21103;-57
2022/12/25 07:07:04;;;;;;;58.95;40.48;;;;;;;8.90;69.33;101650.63;1655046;85;21147;-57
2022/12/25 07:09:31;;;;;;;57.78;41.83;;;;;;;8.92;69.23;101651.48;1658984;85;21061;-57
2022/12/25 07:12:19;;;;;;;56.63;41.88;;;;;;;8.94;69.29;101652.35;1632085;87;21621;-59
2022/12/25 07:14:48;;;;;;;62.60;44.50;;;;;;;8.98;69.31;101646.29;1656088;84;21065;-57
2022/12/25 07:17:17;;;;;;;61.95;42.50;;;;;;;9.03;69.20;101634.15;1659389;85;21049;-57
2022/12/25 07:19:44;;;;;;;66.35;47.03;;;;;;;9.07;68.88;101633.28;1661535;85;21097;-57
2022/12/25 07:22:12;;;;;;;56.05;40.95;;;;;;;9.06;68.91;101627.67;1660576;85;21046;-57
2022/12/25 07:24:38;;;;;;;56.60;42.33;;;;;;;9.06;68.58;101636.76;1659605;85;21002;-57
2022/12/25 07:27:05;;;;;;;59.77;41.70;;;;;;;9.02;68.46;101653.20;1658795;85;21576;-57
2022/12/25 07:29:32;;;;;;;58.73;41.40;;;;;;;8.97;68.43;101662.72;1653357;85;21108;-57
2022/12/25 07:31:59;;;;;;;60.83;41.68;;;;;;;8.91;68.60;101666.62;1660965;85;21006;-57
2022/12/25 07:34:26;;;;;;;56.88;41.63;;;;;;;8.87;68.74;101669.66;1658980;85;21666;-57
2022/12/25 07:36:54;;;;;;;53.70;40.55;;;;;;;8.82;68.78;101662.75;1659759;85;21077;-57
2022/12/25 07:39:20;;;;;;;55.65;40.00;;;;;;;8.80;68.97;101661.84;1658444;85;21133;-57
2022/12/25 07:41:47;;;;;;;53.50;38.17;;;;;;;8.79;69.00;101665.33;1660436;85;21045;-57
2022/12/25 07:44:15;;;;;;;58.98;40.55;;;;;;;8.78;69.05;101666.17;1660856;85;21038;-57
2022/12/25 07:46:41;;;;;;;58.20;40.60;;;;;;;8.77;69.23;101670.52;1653377;85;21045;-57
2022/12/25 07:49:09;;;;;;;55.63;40.60;;;;;;;8.79;69.06;101667.92;1658713;85;21175;-57
2022/12/25 07:51:37;;;;;;;57.00;39.83;;;;;;;8.79;69.12;101673.11;1658305;85;21085;-57
2022/12/25 07:54:03;;;;;;;55.52;38.88;;;;;;;8.78;69.10;101676.55;1674728;81;21060;-57
2022/12/25 07:56:31;;;;;;;55.73;40.48;;;;;;;8.74;69.17;101674.83;1714406;83;21086;-57
2022/12/25 07:58:57;;;;;;;58.25;41.90;;;;;;;8.74;69.47;101682.61;1713727;83;21549;-57
2022/12/25 08:01:26;;;;;;;56.83;40.78;;;;;;;8.76;69.44;101683.47;1716138;83;21049;-58
2022/12/25 08:03:59;;;;;;;55.17;39.83;;;;;;;8.77;69.37;101681.33;1716496;83;21543;-57
2022/12/25 08:06:30;;;;;;;59.20;41.42;;;;;;;8.72;69.52;101682.62;1712133;83;20993;-57
2022/12/25 08:09:04;;;;;;;55.98;41.13;;;;;;;8.73;69.73;101680.47;1719117;83;21053;-57
2022/12/25 08:11:31;;;;;;;58.40;41.73;;;;;;;8.75;69.72;101673.98;1644945;84;21057;-57
2022/12/25 08:13:57;;;;;;;61.35;42.90;;;;;;;8.75;69.86;101680.04;1649245;85;21053;-57
2022/12/25 08:16:24;;;;;;;60.23;41.88;;;;;;;8.76;69.91;101678.28;1647455;85;21580;-57
2022/12/25 08:18:51;;;;;;;59.77;41.45;;;;;;;8.80;70.03;101674.83;1647160;85;21128;-57
2022/12/25 08:21:17;;;;;;;62.23;41.58;;;;;;;8.86;69.88;101677.45;1605124;87;21090;-57
2022/12/25 08:23:45;;;;;;;61.33;41.58;;;;;;;8.88;69.72;101673.13;1648931;85;21057;-57
2022/12/25 08:26:17;;;;;;;62.88;41.63;;;;;;;8.88;69.80;101678.31;1611559;87;21097;-57
2022/12/25 08:28:44;;;;;;;;;;;;;;;8.90;69.78;101676.58;1564433;90;21069;-57
2022/12/25 08:31:22;;;;;;;63.50;41.60;;;;;;;8.90;69.89;101679.18;1551657;91;20150;-57
2022/12/25 08:33:51;;;;;;;64.17;42.98;;;;;;;8.90;69.90;101667.50;1554225;90;21091;-57
2022/12/25 08:36:18;;;;;;;62.10;41.58;;;;;;;8.93;69.95;101673.97;1554620;90;21061;-57
2022/12/25 08:38:45;;;;;;;64.05;43.50;;;;;;;8.94;69.94;101668.77;1550972;90;21091;-57
2022/12/25 08:41:12;;;;;;;65.08;42.60;;;;;;;8.97;69.99;101679.16;1545105;91;21172;-57
2022/12/25 08:43:38;;;;;;;64.58;41.85;;;;;;;9.03;69.80;101676.98;1541172;90;21110;-57
2022/12/25 08:46:05;;;;;;;63.52;41.80;;;;;;;9.03;69.73;101674.39;1567756;89;21645;-57
2022/12/25 08:48:32;;;;;;;64.50;43.60;;;;;;;9.00;69.82;101675.70;1550163;90;21562;-57
2022/12/25 08:50:59;;;;;;;67.37;44.40;;;;;;;9.00;70.13;101683.50;1558078;90;21101;-57
2022/12/25 08:53:27;;;;;;;66.97;45.08;;;;;;;9.08;70.33;101683.05;1561746;90;21038;-57
2022/12/25 08:56:03;;;;;;;67.45;44.65;;;;;;;9.17;70.20;101694.70;1558492;89;21132;-57
2022/12/25 08:58:30;;;;;;;73.97;47.23;;;;;;;9.23;70.33;101689.54;1549568;90;21108;-57
2022/12/25 09:00:57;;;;;;;70.72;45.20;;;;;;;9.32;70.20;101690.80;1548571;90;21560;-57
2022/12/25 09:03:23;;;;;;;72.97;46.77;;;;;;;9.41;69.93;101688.20;1548375;90;21137;-57
2022/12/25 09:05:52;;;;;;;70.00;45.23;;;;;;;9.43;69.69;101692.95;1547195;90;21089;-57
2022/12/25 09:08:20;;;;;;;65.65;43.17;;;;;;;9.48;69.83;101689.05;1586021;87;21053;-57
2022/12/25 09:10:48;;;;;;;70.03;43.10;;;;;;;9.56;69.81;101694.64;1609310;87;21126;-57
2022/12/25 09:13:14;;;;;;;62.65;41.10;;;;;;;9.64;69.60;101697.23;1645696;86;21590;-57
2022/12/25 09:15:42;;;;;;;65.52;41.98;;;;;;;9.72;69.35;101696.77;1643622;87;21013;-57
2022/12/25 09:18:08;;;;;;;65.87;41.08;;;;;;;9.77;69.13;101698.48;1643171;87;21053;-57
2022/12/25 09:20:36;;;;;;;65.57;40.73;;;;;;;9.79;68.99;101699.34;1646167;86;21596;-57
2022/12/25 09:23:03;;;;;;;60.70;38.67;;;;;;;9.76;68.73;101695.47;1656972;86;21024;-58
2022/12/25 09:25:30;;;;;;;60.78;37.55;;;;;;;9.72;68.86;101691.15;1688066;81;21088;-57
2022/12/25 09:27:56;;;;;;;51.88;34.43;;;;;;;9.70;69.03;101694.19;1717346;83;21046;-57
2022/12/25 09:30:24;;;;;;;49.83;31.97;;;;;;;9.72;69.07;101691.15;1712259;81;21086;-57
2022/12/25 09:32:50;;;;;;;49.53;32.60;;;;;;;9.69;69.02;101680.75;1713029;83;21004;-57
2022/12/25 09:35:17;;;;;;;47.55;31.75;;;;;;;9.65;69.23;101685.95;1692751;83;21039;-57
2022/12/25 09:37:44;;;;;;;51.10;33.18;;;;;;;9.66;69.41;101692.47;1715379;81;21592;-57
2022/12/25 09:40:18;;;;;;;49.30;32.60;;;;;;;9.68;69.43;101685.53;1722588;81;21186;-57
2022/12/25 09:42:45;;;;;;;46.55;33.20;;;;;;;9.68;69.15;101681.63;1717563;83;21566;-57
2022/12/25 09:45:19;;;;;;;45.55;31.12;;;;;;;9.67;69.14;101683.78;1716123;83;21066;-57
2022/12/25 09:47:46;;;;;;;47.38;31.73;;;;;;;9.65;69.09;101688.13;1715154;81;21547;-57
2022/12/25 09:50:20;;;;;;;47.40;32.40;;;;;;;9.62;69.20;101685.98;1716206;81;21109;-57
2022/12/25 09:53:10;;;;;;;51.70;32.75;;;;;;;9.60;69.28;101681.22;1716634;81;20975;-58
2022/12/25 09:55:42;;;;;;;49.30;33.50;;;;;;;9.60;69.28;101683.36;1699554;84;21025;-57
2022/12/25 09:58:11;;;;;;;;;;;;;;;9.59;69.26;101684.25;1716392;83;21036;-57
2022/12/25 10:00:41;;;;;;;49.77;33.83;;;;;;;9.59;69.24;101683.38;1721222;83;20092;-57
2022/12/25 10:03:48;;;;;;;50.92;33.78;;;;;;;9.57;69.43;101684.69;1713976;83;22183;-57
2022/12/25 10:06:21;;;;;;;45.55;32.23;;;;;;;9.57;69.37;101680.79;1717435;83;21076;-57
2022/12/25 10:09:16;;;;;;;51.80;35.28;;;;;;;9.58;69.26;101684.27;1717714;81;21029;-57
2022/12/25 10:12:25;;;;;;;47.85;34.08;;;;;;;9.55;69.20;101689.03;1677953;83;21053;-57
2022/12/25 10:15:32;;;;;;;49.40;34.13;;;;;;;9.58;69.30;101694.66;1672449;84;21132;-57
2022/12/25 10:18:25;;;;;;;45.73;32.42;;;;;;;9.60;69.16;101692.45;1683342;84;21546;-57
2022/12/25 10:20:54;;;;;;;50.78;35.05;;;;;;;9.61;69.00;101692.91;1659585;83;21090;-57
2022/12/25 10:23:27;;;;;;;55.20;36.85;;;;;;;9.60;68.84;101701.55;1641382;85;21101;-57
2022/12/25 10:25:54;;;;;;;53.78;36.60;;;;;;;9.58;68.84;101704.59;1598870;87;21683;-57
2022/12/25 10:28:29;;;;;;;54.58;34.40;;;;;;;9.56;68.88;101701.13;1620691;87;21131;-57
2022/12/25 10:30:57;;;;;;;52.40;34.73;;;;;;;9.56;68.90;101697.23;1637641;85;21163;-57
2022/12/25 10:33:24;;;;;;;51.85;33.85;;;;;;;9.58;69.05;101694.66;1644040;86;21014;-57
2022/12/25 10:35:50;;;;;;;49.23;32.48;;;;;;;9.51;69.21;101698.13;1632806;86;21072;-57
2022/12/25 10:38:18;;;;;;;49.70;34.18;;;;;;;9.48;69.29;101698.98;1646548;86;21102;-57
2022/12/25 10:41:18;;;;;;;47.73;32.63;;;;;;;9.46;69.30;101694.69;1639950;86;21574;-57
2022/12/25 10:43:53;;;;;;;56.00;35.75;;;;;;;9.50;69.16;101701.15;1523019;92;21090;-57
2022/12/25 10:46:20;;;;;;;51.75;33.55;;;;;;;9.59;68.95;101707.63;1475104;95;21690;-57
2022/12/25 10:48:57;;;;;;;52.38;35.98;;;;;;;9.63;68.74;101702.86;1474128;95;21125;-57
2022/12/25 10:51:33;;;;;;;47.40;33.13;;;;;;;9.67;68.68;101714.97;1478453;95;21133;-57
2022/12/25 10:54:04;;;;;;;50.58;33.10;;;;;;;9.70;68.48;101713.68;1477394;95;21162;-57
2022/12/25 10:56:31;;;;;;;50.80;34.33;;;;;;;9.70;68.29;101718.88;1486545;94;21105;-57
2022/12/25 10:59:06;;;;;;;45.73;32.90;;;;;;;9.68;68.20;101725.81;1492598;94;21166;-57
2022/12/25 11:01:32;;;;;;;40.35;29.92;;;;;;;9.68;68.22;101722.34;1497075;94;21242;-57
2022/12/25 11:03:59;;;;;;;46.28;31.25;;;;;;;9.66;67.88;101722.36;1503397;94;21110;-57
2022/12/25 11:06:28;;;;;;;43.80;30.27;;;;;;;9.63;67.73;101719.75;1505493;94;21089;-57
2022/12/25 11:08:57;;;;;;;42.60;30.88;;;;;;;9.59;67.72;101728.42;1499939;94;21103;-57
2022/12/25 11:11:25;;;;;;;44.85;31.40;;;;;;;9.57;67.80;101732.76;1502021;94;21142;-57
2022/12/25 11:13:58;;;;;;;46.28;30.92;;;;;;;9.60;67.70;101734.03;1504877;95;21097;-57
2022/12/25 11:16:37;;;;;;;43.75;31.37;;;;;;;9.59;67.80;101736.22;1507738;94;21191;-57
2022/12/25 11:19:30;;;;;;;46.18;31.85;;;;;;;9.61;67.67;101741.40;1528965;94;21070;-57
2022/12/25 11:21:59;;;;;;;42.55;30.30;;;;;;;9.58;67.52;101744.86;1593736;87;21117;-57
2022/12/25 11:24:30;;;;;;;43.30;30.00;;;;;;;9.54;67.55;101740.55;1638351;87;21586;-57
2022/12/25 11:27:00;;;;;;;44.60;30.60;;;;;;;9.53;67.70;101749.65;1638548;87;21067;-57
2022/12/25 11:29:46;;;;;;;43.58;29.63;;;;;;;9.52;67.71;101753.97;1634041;87;21113;-57
2022/12/25 11:32:24;;;;;;;41.40;29.50;;;;;;;9.51;67.67;101748.36;1637425;87;21065;-57
2022/12/25 11:34:51;;;;;;;38.92;28.45;;;;;;;9.49;67.71;101757.02;1638330;87;21118;-57
2022/12/25 11:37:22;;;;;;;37.55;27.50;;;;;;;9.48;67.68;101754.84;1640980;87;21091;-57
2022/12/25 11:39:49;;;;;;;;;;;;;;;9.48;67.65;101754.84;1653310;86;21089;-58
2022/12/25 11:42:31;;;;;;;43.75;29.27;;;;;;;9.48;67.64;101750.95;1649053;86;20120;-59
2022/12/25 11:45:09;;;;;;;42.75;28.87;;;;;;;9.47;67.61;101761.35;1648847;86;21061;-58
2022/12/25 11:47:42;;;;;;;38.15;26.73;;;;;;;9.43;67.64;101764.39;1648918;86;21137;-57
2022/12/25 11:50:30;;;;;;;;;;;;;;;9.42;67.77;101763.08;1649516;86;21115;-59
2022/12/25 11:52:59;;;;;;;42.45;27.52;;;;;;;9.41;67.82;101771.33;1639308;86;20122;-58
2022/12/25 11:55:53;;;;;;;39.30;27.25;;;;;;;9.39;67.88;101774.36;1598822;89;21102;-58
2022/12/25 11:58:28;;;;;;;38.53;27.00;;;;;;;9.38;67.87;101766.12;1634650;86;21525;-58
2022/12/25 12:00:56;;;;;;;39.40;28.42;;;;;;;9.37;68.02;101776.09;1647895;86;21526;-58
2022/12/25 12:03:30;;;;;;;36.33;25.90;;;;;;;9.36;68.09;101776.94;1671807;85;21052;-58
2022/12/25 12:06:02;;;;;;;42.20;29.90;;;;;;;9.37;68.12;101777.39;1671097;85;21018;-58
2022/12/25 12:08:29;;;;;;;40.30;28.60;;;;;;;9.38;68.14;101780.41;1670077;85;21104;-57
2022/12/25 12:11:19;;;;;;;41.13;29.10;;;;;;;9.40;68.20;101786.46;1670010;85;21499;-58
2022/12/25 12:14:11;;;;;;;39.08;27.77;;;;;;;9.41;68.17;101785.61;1684774;85;21011;-57
2022/12/25 12:16:38;;;;;;;35.00;27.20;;;;;;;9.41;68.16;101789.94;1671249;85;21099;-58
2022/12/25 12:19:26;;;;;;;42.17;28.45;;;;;;;9.37;68.26;101791.67;1669598;85;21048;-57
2022/12/25 12:21:57;;;;;;;40.38;27.60;;;;;;;9.37;68.27;101794.70;1670410;85;21054;-58
2022/12/25 12:24:34;;;;;;;38.30;28.15;;;;;;;9.37;68.42;101786.48;1535130;93;21090;-58
2022/12/25 12:27:11;;;;;;;37.63;26.23;;;;;;;9.42;68.42;101797.72;1500081;94;21152;-57
2022/12/25 12:29:42;;;;;;;38.88;27.50;;;;;;;9.43;68.36;101791.67;1459910;97;21155;-58
2022/12/25 12:32:43;;;;;;;41.18;28.75;;;;;;;9.46;68.27;101798.15;1462664;97;21277;-57
2022/12/25 12:35:25;;;;;;;40.48;27.67;;;;;;;9.46;68.07;101796.84;1474795;96;21160;-57
2022/12/25 12:37:58;;;;;;;40.98;29.40;;;;;;;9.50;67.97;101794.67;1445194;97;21132;-57
2022/12/25 12:40:36;;;;;;;41.02;28.40;;;;;;;9.47;67.98;101796.00;1457004;97;21121;-58
2022/12/25 12:43:04;;;;;;;38.90;28.62;;;;;;;9.45;68.06;101800.33;1458004;97;21122;-58
2022/12/25 12:45:34;;;;;;;39.38;28.05;;;;;;;9.44;68.10;101806.37;1497183;96;21197;-58
2022/12/25 12:48:01;;;;;;;39.03;27.35;;;;;;;9.40;68.24;101809.84;1464649;96;21186;-57
2022/12/25 12:50:38;;;;;;;39.25;27.70;;;;;;;9.39;68.36;101796.44;1440634;98;21176;-58
2022/12/25 12:53:28;;;;;;;45.88;30.57;;;;;;;9.37;68.34;101802.06;1446807;98;21622;-57
2022/12/25 12:55:55;;;;;;;46.70;30.48;;;;;;;9.34;68.33;101806.37;1445527;97;21649;-57
2022/12/25 12:58:33;;;;;;;45.67;30.50;;;;;;;9.31;68.51;101806.39;1443624;98;21193;-57
2022/12/25 13:01:17;;;;;;;41.98;29.52;;;;;;;9.29;68.49;101803.80;1443664;98;21184;-57
2022/12/25 13:04:12;;;;;;;44.80;30.20;;;;;;;9.29;68.49;101812.89;1406273;101;21140;-57
2022/12/25 13:07:00;;;;;;;45.20;30.10;;;;;;;9.28;68.54;101820.23;1405594;100;21175;-57
2022/12/25 13:10:01;;;;;;;46.55;31.57;;;;;;;9.25;68.49;101822.84;1390463;101;21118;-58
2022/12/25 13:12:29;;;;;;;44.42;30.55;;;;;;;9.22;68.56;101822.83;1395632;102;21240;-58
2022/12/25 13:14:56;;;;;;;48.68;31.25;;;;;;;9.18;68.75;101821.09;1418543;99;21199;-58